Time;durP1;ratioP1;P1;durP2;ratioP2;P2;SDS_P1;SDS_P2;PMS_P1;PMS_P2;Temp;Humidity;BMP_temperature;BMP_pressure;BME280_temperature;BME280_humidity;BME280_pressure;Samples;Min_cycle;Max_cycle;Signal;HPM_P1;HPM_P2
2022/03/08 00:00:00;;;;;;;2.70;1.23;;;19.50;46.90;;;;;;5079776;28;20024;-76
2022/03/08 00:02:26;;;;;;;2.03;1.15;;;19.50;46.90;;;;;;5062174;28;20044;-76
2022/03/08 00:04:51;;;;;;;3.17;1.20;;;19.40;46.80;;;;;;5082445;28;20098;-76
2022/03/08 00:07:17;;;;;;;2.67;1.00;;;19.50;47.60;;;;;;5066315;28;20043;-76
2022/03/08 00:09:46;;;;;;;1.95;1.00;;;19.40;46.80;;;;;;5083336;28;20050;-76
2022/03/08 00:12:12;;;;;;;1.33;1.23;;;19.40;46.80;;;;;;5087516;28;20047;-76
2022/03/08 00:14:38;;;;;;;2.17;1.33;;;19.40;46.80;;;;;;5084426;28;20048;-76
2022/03/08 00:17:04;;;;;;;3.30;1.30;;;19.40;46.80;;;;;;5080529;28;20111;-77
2022/03/08 00:19:29;;;;;;;2.67;1.20;;;19.40;46.80;;;;;;5081806;28;20127;-77
2022/03/08 00:21:56;;;;;;;2.13;1.17;;;19.40;46.80;;;;;;5082981;28;20048;-76
2022/03/08 00:24:22;;;;;;;1.65;1.00;;;19.40;46.80;;;;;;5080409;28;20036;-76
2022/03/08 00:26:48;;;;;;;2.13;1.17;;;19.40;46.80;;;;;;5065826;28;20044;-76
2022/03/08 00:29:17;;;;;;;2.42;1.10;;;19.40;46.80;;;;;;5082487;28;20497;-76
2022/03/08 00:31:42;;;;;;;;;;;19.40;46.80;;;;;;5087688;28;20040;-76
2022/03/08 00:34:08;;;;;;;1.83;0.93;;;19.30;46.60;;;;;;5082317;28;20009;-76
2022/03/08 00:36:34;;;;;;;1.40;1.10;;;19.30;46.70;;;;;;5079620;28;20040;-75
2022/03/08 00:39:00;;;;;;;1.67;1.23;;;19.30;46.70;;;;;;5083661;28;20040;-76
2022/03/08 00:41:25;;;;;;;1.63;1.30;;;19.30;46.70;;;;;;5083632;28;20046;-76
2022/03/08 00:43:51;;;;;;;2.00;1.15;;;19.30;46.70;;;;;;5083412;28;20047;-76
2022/03/08 00:46:18;;;;;;;1.38;1.02;;;19.30;46.70;;;;;;5084280;28;20036;-75
2022/03/08 00:48:44;;;;;;;1.27;1.08;;;19.30;46.70;;;;;;5063521;28;20078;-76
2022/03/08 00:51:11;;;;;;;2.53;1.20;;;19.30;46.70;;;;;;5087623;28;20036;-76
2022/03/08 00:53:37;;;;;;;1.55;1.10;;;19.30;46.70;;;;;;5079634;28;20078;-76
2022/03/08 00:56:03;;;;;;;1.80;1.10;;;19.30;46.70;;;;;;5081415;28;20476;-75
2022/03/08 00:58:29;;;;;;;1.73;1.20;;;19.30;46.70;;;;;;5086426;28;20034;-75
2022/03/08 01:00:55;;;;;;;2.65;1.30;;;19.30;46.70;;;;;;5087560;28;20147;-75
2022/03/08 01:03:20;;;;;;;2.25;1.27;;;19.30;46.60;;;;;;5077910;28;20041;-76
2022/03/08 01:05:46;;;;;;;2.45;1.20;;;19.20;46.60;;;;;;5088038;28;20482;-76
2022/03/08 01:08:13;;;;;;;2.08;1.20;;;19.30;46.70;;;;;;5086751;28;20400;-76
2022/03/08 01:10:39;;;;;;;1.52;1.10;;;19.30;46.60;;;;;;5083979;28;20056;-75
2022/03/08 01:13:05;;;;;;;1.63;1.30;;;19.30;46.60;;;;;;5088279;28;20071;-76
2022/03/08 01:15:31;;;;;;;1.48;1.27;;;19.30;46.70;;;;;;5063999;28;20043;-77
2022/03/08 01:17:58;;;;;;;1.33;1.10;;;19.20;46.60;;;;;;5078755;28;20036;-77
2022/03/08 01:20:24;;;;;;;1.45;1.00;;;19.30;46.70;;;;;;5076120;28;20044;-76
2022/03/08 01:22:51;;;;;;;1.92;1.20;;;19.20;46.60;;;;;;5079483;28;20044;-76
2022/03/08 01:25:18;;;;;;;1.27;1.00;;;19.20;46.50;;;;;;5064567;28;20050;-76
2022/03/08 01:27:44;;;;;;;2.10;1.20;;;19.30;46.60;;;;;;5083262;28;20173;-76
2022/03/08 01:30:13;;;;;;;1.98;1.20;;;19.20;46.50;;;;;;5082013;28;20035;-76
2022/03/08 01:32:39;;;;;;;1.60;1.10;;;19.20;46.50;;;;;;5077274;28;20096;-77
2022/03/08 01:35:06;;;;;;;1.85;1.20;;;19.20;46.50;;;;;;5083051;28;20040;-76
2022/03/08 01:37:32;;;;;;;1.30;1.10;;;19.20;46.50;;;;;;5077932;28;20155;-75
2022/03/08 01:39:58;;;;;;;1.77;1.38;;;19.20;46.50;;;;;;5073927;28;20086;-77
2022/03/08 01:42:25;;;;;;;1.98;1.15;;;19.20;46.50;;;;;;5077822;28;20524;-77
2022/03/08 01:44:51;;;;;;;2.20;1.40;;;19.20;46.40;;;;;;5079742;28;20044;-76
2022/03/08 01:47:20;;;;;;;1.50;1.10;;;19.20;46.40;;;;;;5082195;28;20040;-76
2022/03/08 01:49:48;;;;;;;1.20;1.00;;;19.20;46.40;;;;;;5083378;28;20040;-76
2022/03/08 01:52:15;;;;;;;1.70;1.20;;;19.20;46.40;;;;;;5079897;28;20155;-77
2022/03/08 01:54:42;;;;;;;1.50;1.08;;;19.20;46.40;;;;;;5081587;28;20051;-77
2022/03/08 01:57:08;;;;;;;3.17;1.25;;;19.20;46.40;;;;;;5081514;28;20048;-76
2022/03/08 01:59:34;;;;;;;2.53;1.15;;;19.20;46.40;;;;;;5075401;28;20083;-76
2022/03/08 02:02:00;;;;;;;1.85;1.15;;;19.20;46.40;;;;;;5078648;28;20072;-76
2022/03/08 02:04:25;;;;;;;1.20;1.00;;;19.20;46.40;;;;;;5077308;28;20041;-78
2022/03/08 02:06:51;;;;;;;1.95;1.40;;;19.20;46.40;;;;;;5074749;28;20762;-77
2022/03/08 02:09:17;;;;;;;1.65;1.30;;;19.10;46.30;;;;;;5085669;28;20083;-76
2022/03/08 02:11:44;;;;;;;1.85;1.27;;;19.20;46.30;;;;;;5077398;28;20446;-77
2022/03/08 02:14:09;;;;;;;1.83;1.15;;;19.20;46.30;;;;;;5083063;28;20043;-77
2022/03/08 02:16:35;;;;;;;1.60;1.30;;;19.20;46.30;;;;;;5082016;28;20041;-78
2022/03/08 02:19:01;;;;;;;2.13;1.20;;;19.20;46.30;;;;;;5084736;28;20039;-76
2022/03/08 02:21:28;;;;;;;2.00;1.25;;;19.20;46.30;;;;;;5080291;28;20113;-76
2022/03/08 02:23:54;;;;;;;1.48;1.15;;;19.20;46.20;;;;;;5066549;28;20043;-76
2022/03/08 02:26:22;;;;;;;2.10;1.38;;;19.20;46.20;;;;;;5087393;28;20039;-78
2022/03/08 02:28:49;;;;;;;1.73;1.10;;;19.10;46.10;;;;;;5065757;28;20097;-77
2022/03/08 02:31:17;;;;;;;2.03;1.13;;;19.10;46.10;;;;;;5083063;28;20368;-77
2022/03/08 02:33:44;;;;;;;;;;;19.10;46.10;;;;;;5067949;28;20395;-77
2022/03/08 02:36:09;;;;;;;2.08;1.27;;;19.10;46.10;;;;;;5084353;28;19920;-77
2022/03/08 02:38:35;;;;;;;1.20;0.90;;;19.20;46.10;;;;;;5077772;28;20032;-76
2022/03/08 02:41:02;;;;;;;3.50;1.20;;;19.20;46.10;;;;;;5082932;28;20036;-78
2022/03/08 02:43:28;;;;;;;1.98;1.23;;;19.20;46.10;;;;;;5083405;28;20043;-76
2022/03/08 02:45:54;;;;;;;2.22;1.23;;;19.10;46.10;;;;;;5080029;28;20109;-78
2022/03/08 02:48:20;;;;;;;2.03;1.20;;;19.10;46.10;;;;;;5081264;28;20036;-75
2022/03/08 02:50:46;;;;;;;2.08;1.20;;;19.10;46.30;;;;;;5081644;28;20044;-79
2022/03/08 02:53:11;;;;;;;2.00;1.40;;;19.20;46.30;;;;;;5082312;28;20570;-76
2022/03/08 02:55:37;;;;;;;1.85;1.23;;;19.20;46.30;;;;;;5084866;28;20044;-76
2022/03/08 02:58:04;;;;;;;1.42;1.13;;;19.20;46.20;;;;;;5074911;28;20194;-76
2022/03/08 03:00:31;;;;;;;1.55;1.20;;;19.20;46.20;;;;;;5083780;28;20033;-75
2022/03/08 03:02:57;;;;;;;1.88;1.10;;;19.20;46.20;;;;;;5084688;28;20040;-75
2022/03/08 03:05:23;;;;;;;3.55;1.30;;;19.20;46.10;;;;;;5080928;28;20387;-76
2022/03/08 03:07:49;;;;;;;4.03;1.38;;;19.20;46.10;;;;;;5077950;28;20040;-76
2022/03/08 03:10:18;;;;;;;2.05;1.30;;;19.20;46.10;;;;;;5090511;27;21269;-76
2022/03/08 03:12:44;;;;;;;1.40;1.20;;;19.10;46.00;;;;;;5074049;28;20044;-76
2022/03/08 03:15:13;;;;;;;1.38;1.27;;;19.10;46.00;;;;;;5082207;28;20478;-77
2022/03/08 03:17:39;;;;;;;1.83;1.30;;;19.20;46.00;;;;;;5064280;28;20050;-76
2022/03/08 03:20:07;;;;;;;2.22;0.98;;;19.20;46.00;;;;;;5082973;28;20482;-76
2022/03/08 03:22:34;;;;;;;2.28;1.50;;;19.20;46.00;;;;;;5082367;28;20051;-76
2022/03/08 03:25:00;;;;;;;1.40;1.10;;;19.10;45.90;;;;;;5064472;28;20051;-76
2022/03/08 03:27:27;;;;;;;2.22;1.30;;;19.10;45.90;;;;;;5076139;28;20124;-76
2022/03/08 03:29:53;;;;;;;2.05;1.35;;;19.10;45.90;;;;;;5066944;28;20479;-76
2022/03/08 03:32:19;;;;;;;2.90;1.20;;;19.20;45.90;;;;;;5087236;28;20043;-76
2022/03/08 03:34:46;;;;;;;2.38;1.40;;;19.20;45.90;;;;;;5077354;28;20068;-75
2022/03/08 03:37:12;;;;;;;1.80;1.20;;;19.20;45.90;;;;;;5079965;28;20036;-76
2022/03/08 03:39:38;;;;;;;1.73;1.27;;;19.10;45.80;;;;;;5083612;28;20039;-76
2022/03/08 03:42:04;;;;;;;1.85;1.17;;;19.20;45.90;;;;;;5076636;28;20051;-76
2022/03/08 03:44:30;;;;;;;2.45;1.40;;;19.20;45.90;;;;;;5083133;28;20373;-76
2022/03/08 03:46:56;;;;;;;2.80;1.20;;;19.20;45.80;;;;;;5078324;28;20047;-77
2022/03/08 03:49:22;;;;;;;1.40;1.17;;;19.10;45.80;;;;;;5078061;28;20051;-75
2022/03/08 03:51:50;;;;;;;3.17;1.38;;;19.10;45.80;;;;;;5067938;28;20113;-76
2022/03/08 03:54:18;;;;;;;1.85;1.25;;;19.20;45.80;;;;;;5068564;28;20063;-76
2022/03/08 03:56:44;;;;;;;2.13;1.40;;;19.10;45.80;;;;;;5086499;28;20043;-76
2022/03/08 03:59:10;;;;;;;1.63;1.23;;;19.10;45.80;;;;;;5079507;28;20032;-75
2022/03/08 04:01:36;;;;;;;2.17;1.35;;;19.20;45.80;;;;;;5081851;28;20046;-76
2022/03/08 04:04:02;;;;;;;1.35;1.15;;;19.10;45.80;;;;;;5087650;28;20048;-77
2022/03/08 04:06:27;;;;;;;1.73;1.17;;;19.10;45.70;;;;;;5071441;28;20037;-77
2022/03/08 04:08:53;;;;;;;1.40;1.23;;;19.10;45.70;;;;;;5083232;28;20036;-76
2022/03/08 04:11:19;;;;;;;1.75;1.30;;;19.10;45.70;;;;;;5087280;28;20043;-77
2022/03/08 04:13:44;;;;;;;1.98;1.23;;;19.10;45.70;;;;;;5082717;28;20043;-76
2022/03/08 04:16:11;;;;;;;1.27;1.10;;;19.10;45.70;;;;;;5090761;28;20532;-76
2022/03/08 04:18:37;;;;;;;1.85;1.20;;;19.20;45.70;;;;;;5083138;28;20246;-76
2022/03/08 04:21:03;;;;;;;1.40;1.30;;;19.20;45.70;;;;;;5089202;28;20036;-77
2022/03/08 04:23:29;;;;;;;4.95;1.27;;;19.20;45.70;;;;;;5093036;28;20547;-77
2022/03/08 04:25:55;;;;;;;1.98;1.20;;;19.10;45.60;;;;;;5074049;28;20039;-76
2022/03/08 04:28:21;;;;;;;1.50;1.40;;;19.10;45.60;;;;;;5079931;28;20441;-77
2022/03/08 04:30:46;;;;;;;1.25;1.10;;;19.10;45.70;;;;;;5092412;28;20134;-77
2022/03/08 04:33:12;;;;;;;1.88;1.30;;;19.10;45.60;;;;;;5085429;28;20127;-76
2022/03/08 04:35:38;;;;;;;2.45;1.40;;;19.10;45.60;;;;;;5090994;28;20036;-76
2022/03/08 04:38:04;;;;;;;2.25;1.30;;;19.10;45.70;;;;;;5089441;28;20035;-77
2022/03/08 04:40:30;;;;;;;1.50;1.27;;;19.10;45.60;;;;;;5070983;28;20044;-76
2022/03/08 04:42:56;;;;;;;1.20;1.02;;;19.10;46.30;;;;;;5089150;28;20071;-77
2022/03/08 04:45:22;;;;;;;2.72;1.23;;;19.10;45.60;;;;;;5091241;28;20083;-76
2022/03/08 04:47:47;;;;;;;1.80;1.30;;;19.10;45.50;;;;;;5083545;28;22024;-77
2022/03/08 04:50:16;;;;;;;2.00;1.10;;;19.10;46.30;;;;;;5088730;28;20040;-76
2022/03/08 04:52:44;;;;;;;1.80;1.20;;;19.10;45.60;;;;;;5061787;28;20105;-77
2022/03/08 04:55:11;;;;;;;2.03;1.30;;;19.10;45.60;;;;;;5090117;28;20078;-75
2022/03/08 04:57:37;;;;;;;1.50;1.20;;;19.10;45.50;;;;;;5082522;28;20047;-76
2022/03/08 05:00:05;;;;;;;1.80;1.20;;;19.10;45.60;;;;;;5088513;28;20471;-76
2022/03/08 05:02:31;;;;;;;2.03;1.40;;;19.10;45.60;;;;;;5081096;28;20503;-77
2022/03/08 05:04:57;;;;;;;1.70;1.05;;;19.00;45.50;;;;;;5079289;28;20067;-77
2022/03/08 05:07:23;;;;;;;2.30;1.20;;;19.00;45.50;;;;;;5063830;28;20070;-77
2022/03/08 05:09:49;;;;;;;1.40;1.20;;;19.00;45.50;;;;;;5085129;28;20051;-76
2022/03/08 05:12:15;;;;;;;2.05;1.30;;;19.10;45.50;;;;;;5087757;28;20056;-76
2022/03/08 05:14:41;;;;;;;2.38;1.30;;;19.10;46.30;;;;;;5089328;28;20127;-77
2022/03/08 05:17:07;;;;;;;1.63;1.30;;;19.10;45.50;;;;;;5068328;28;20112;-77
2022/03/08 05:19:33;;;;;;;1.45;1.17;;;19.10;45.50;;;;;;5084045;28;20040;-77
2022/03/08 05:21:59;;;;;;;2.05;1.10;;;19.10;45.40;;;;;;5085381;28;20044;-76
2022/03/08 05:24:25;;;;;;;1.85;1.10;;;19.10;45.40;;;;;;5083712;28;20040;-77
2022/03/08 05:26:51;;;;;;;2.53;1.38;;;19.10;45.40;;;;;;5088937;28;20059;-76
2022/03/08 05:29:17;;;;;;;1.65;1.23;;;19.10;45.40;;;;;;5079175;28;20115;-77
2022/03/08 05:31:43;;;;;;;2.30;1.50;;;19.10;45.40;;;;;;5088071;28;20487;-77
2022/03/08 05:34:09;;;;;;;1.55;1.10;;;19.10;45.40;;;;;;5082220;28;20032;-77
2022/03/08 05:36:35;;;;;;;2.20;1.30;;;19.10;45.30;;;;;;5089377;28;20399;-76
2022/03/08 05:39:02;;;;;;;1.48;1.13;;;19.10;45.30;;;;;;5085140;28;20491;-76
2022/03/08 05:41:29;;;;;;;1.70;1.20;;;19.10;45.30;;;;;;5089092;28;20044;-77
2022/03/08 05:43:55;;;;;;;2.00;1.25;;;19.00;45.30;;;;;;5078667;28;20048;-77
2022/03/08 05:46:21;;;;;;;2.75;1.40;;;19.10;45.40;;;;;;5086998;28;20436;-76
2022/03/08 05:48:47;;;;;;;1.75;1.27;;;19.10;45.40;;;;;;5076569;28;20055;-76
2022/03/08 05:51:13;;;;;;;2.00;1.33;;;19.10;45.30;;;;;;5081583;28;20063;-77
2022/03/08 05:53:38;;;;;;;1.75;1.35;;;19.10;45.30;;;;;;5075747;28;20052;-76
2022/03/08 05:56:04;;;;;;;1.58;1.40;;;19.00;45.20;;;;;;5087309;28;20475;-77
2022/03/08 05:58:30;;;;;;;1.60;1.35;;;19.10;45.30;;;;;;5075927;28;20491;-76
2022/03/08 06:00:55;;;;;;;2.03;1.30;;;19.10;45.30;;;;;;5079239;28;20453;-76
2022/03/08 06:03:21;;;;;;;1.75;1.20;;;19.10;45.30;;;;;;5081592;28;20047;-76
2022/03/08 06:05:47;;;;;;;1.85;1.45;;;19.00;45.20;;;;;;5086756;28;20059;-76
2022/03/08 06:08:14;;;;;;;1.20;1.00;;;19.10;45.30;;;;;;5072427;28;20120;-76
2022/03/08 06:10:40;;;;;;;1.70;1.40;;;19.10;45.30;;;;;;5069767;28;20040;-77
2022/03/08 06:13:06;;;;;;;2.53;1.30;;;19.00;45.20;;;;;;5086566;28;20303;-77
2022/03/08 06:15:31;;;;;;;1.92;1.23;;;19.00;45.20;;;;;;5089227;28;20044;-77
2022/03/08 06:17:57;;;;;;;1.10;1.00;;;19.00;45.20;;;;;;5081421;28;20082;-76
2022/03/08 06:20:23;;;;;;;2.30;1.33;;;19.10;45.40;;;;;;5085567;28;20032;-76
2022/03/08 06:22:48;;;;;;;1.20;1.10;;;19.00;45.50;;;;;;5085925;28;20052;-76
2022/03/08 06:25:14;;;;;;;1.30;1.20;;;19.00;45.70;;;;;;5087728;28;20047;-76
2022/03/08 06:27:40;;;;;;;2.78;1.38;;;19.00;45.70;;;;;;5085013;28;20036;-69
2022/03/08 06:30:06;;;;;;;1.40;1.15;;;19.00;45.80;;;;;;5086996;28;20055;-77
2022/03/08 06:32:32;;;;;;;1.40;1.15;;;19.10;45.90;;;;;;5085905;28;20051;-69
2022/03/08 06:34:58;;;;;;;1.50;1.27;;;19.10;46.00;;;;;;5082537;28;20107;-70
2022/03/08 06:37:24;;;;;;;1.50;1.23;;;19.10;45.80;;;;;;5088786;28;20587;-71
2022/03/08 06:42:09;;;;;;;1.60;1.48;;;19.10;45.10;;;;;;5110277;27;20323;-71
2022/03/08 06:44:38;;;;;;;3.22;1.40;;;19.10;45.80;;;;;;5107040;28;20039;-72
2022/03/08 06:47:06;;;;;;;2.15;1.63;;;19.10;45.80;;;;;;5107163;28;20071;-72
2022/03/08 06:49:32;;;;;;;3.03;1.50;;;19.00;45.70;;;;;;5105462;28;20051;-73
2022/03/08 06:51:58;;;;;;;1.95;1.40;;;19.00;45.70;;;;;;5102636;28;20510;-72
2022/03/08 06:54:23;;;;;;;2.28;1.60;;;19.00;45.70;;;;;;5106612;28;20085;-76
2022/03/08 06:56:49;;;;;;;3.20;1.30;;;19.00;45.70;;;;;;5107362;28;20072;-75
2022/03/08 06:59:16;;;;;;;3.20;1.40;;;19.00;45.70;;;;;;5107404;28;20032;-75
2022/03/08 07:01:41;;;;;;;1.85;1.50;;;19.00;45.70;;;;;;5104668;28;20051;-75
2022/03/08 07:04:07;;;;;;;2.20;1.42;;;19.00;45.80;;;;;;5105442;28;20031;-76
2022/03/08 07:06:33;;;;;;;1.60;1.40;;;19.00;45.80;;;;;;5088527;28;20097;-75
2022/03/08 07:08:58;;;;;;;3.50;1.25;;;19.00;45.90;;;;;;5087819;28;20343;-75
2022/03/08 07:11:24;;;;;;;1.95;1.45;;;19.00;45.90;;;;;;5107088;28;20380;-75
2022/03/08 07:13:50;;;;;;;1.95;1.40;;;19.00;45.90;;;;;;5106671;28;20533;-77
2022/03/08 07:16:16;;;;;;;1.67;1.27;;;19.10;45.90;;;;;;5105483;28;20153;-72
